sensor_id;sensor_type;location;lat;lon;timestamp;pressure;altitude;pressure_sealevel;temperature;humidity
79782;BME280;69262;48.470;7.960;2023-04-19T00:00:39;100255.09;;;17.08;53.69
79782;BME280;69262;48.470;7.960;2023-04-19T00:03:40;100250.28;;;17.04;53.80
79782;BME280;69262;48.470;7.960;2023-04-19T00:06:41;100254.06;;;17.03;53.71
79782;BME280;69262;48.470;7.960;2023-04-19T00:09:41;100254.06;;;17.03;53.77
79782;BME280;69262;48.470;7.960;2023-04-19T00:12:41;100240.03;;;16.99;53.62
79782;BME280;69262;48.470;7.960;2023-04-19T00:15:42;100241.47;;;17.02;53.80
79782;BME280;69262;48.470;7.960;2023-04-19T00:18:42;100244.81;;;17.04;53.77
79782;BME280;69262;48.470;7.960;2023-04-19T00:21:42;100242.53;;;17.01;53.67
79782;BME280;69262;48.470;7.960;2023-04-19T00:24:42;100235.41;;;17.00;53.74
79782;BME280;69262;48.470;7.960;2023-04-19T00:27:43;100249.44;;;17.03;53.71
79782;BME280;69262;48.470;7.960;2023-04-19T00:30:43;100245.25;;;17.01;53.79
79782;BME280;69262;48.470;7.960;2023-04-19T00:33:43;100240.84;;;17.00;53.92
79782;BME280;69262;48.470;7.960;2023-04-19T00:36:44;100231.00;;;16.99;53.72
79782;BME280;69262;48.470;7.960;2023-04-19T00:39:44;100220.09;;;16.92;54.13
79782;BME280;69262;48.470;7.960;2023-04-19T00:42:44;100242.31;;;17.02;53.75
79782;BME280;69262;48.470;7.960;2023-04-19T00:45:46;100225.53;;;16.99;53.67
79782;BME280;69262;48.470;7.960;2023-04-19T00:48:47;100216.09;;;16.95;53.83
79782;BME280;69262;48.470;7.960;2023-04-19T00:51:52;100236.84;;;17.02;53.77
79782;BME280;69262;48.470;7.960;2023-04-19T00:54:52;100224.72;;;16.98;53.76
79782;BME280;69262;48.470;7.960;2023-04-19T00:57:53;100224.06;;;16.96;53.82
79782;BME280;69262;48.470;7.960;2023-04-19T01:00:53;100215.03;;;16.96;53.91
79782;BME280;69262;48.470;7.960;2023-04-19T01:03:54;100217.75;;;16.96;53.91
79782;BME280;69262;48.470;7.960;2023-04-19T01:06:54;100212.94;;;16.91;53.94
79782;BME280;69262;48.470;7.960;2023-04-19T01:09:55;100212.13;;;16.91;53.95
79782;BME280;69262;48.470;7.960;2023-04-19T01:12:55;100214.81;;;16.97;53.96
79782;BME280;69262;48.470;7.960;2023-04-19T01:15:56;100219.44;;;16.97;53.87
79782;BME280;69262;48.470;7.960;2023-04-19T01:18:57;100216.94;;;16.95;53.86
79782;BME280;69262;48.470;7.960;2023-04-19T01:21:57;100219.03;;;16.93;53.86
79782;BME280;69262;48.470;7.960;2023-04-19T01:24:57;100213.78;;;16.92;53.86
79782;BME280;69262;48.470;7.960;2023-04-19T01:27:58;100209.81;;;16.88;54.07
79782;BME280;69262;48.470;7.960;2023-04-19T01:30:58;100206.66;;;16.91;53.99
79782;BME280;69262;48.470;7.960;2023-04-19T01:33:58;100203.31;;;16.89;54.06
79782;BME280;69262;48.470;7.960;2023-04-19T01:36:58;100196.19;;;16.88;54.00
79782;BME280;69262;48.470;7.960;2023-04-19T01:39:59;100196.00;;;16.82;54.02
79782;BME280;69262;48.470;7.960;2023-04-19T01:42:59;100208.16;;;16.87;54.43
79782;BME280;69262;48.470;7.960;2023-04-19T01:45:59;100204.38;;;16.88;54.02
79782;BME280;69262;48.470;7.960;2023-04-19T01:49:00;100197.47;;;16.85;54.21
79782;BME280;69262;48.470;7.960;2023-04-19T01:52:00;100191.81;;;16.80;53.91
79782;BME280;69262;48.470;7.960;2023-04-19T01:55:00;100183.00;;;16.78;54.23
79782;BME280;69262;48.470;7.960;2023-04-19T01:58:01;100185.94;;;16.83;54.08
79782;BME280;69262;48.470;7.960;2023-04-19T02:01:01;100172.94;;;16.78;54.22
79782;BME280;69262;48.470;7.960;2023-04-19T02:04:01;100182.97;;;16.84;54.00
79782;BME280;69262;48.470;7.960;2023-04-19T02:07:02;100173.56;;;16.80;54.13
79782;BME280;69262;48.470;7.960;2023-04-19T02:10:03;100160.56;;;16.69;54.03
79782;BME280;69262;48.470;7.960;2023-04-19T02:13:04;100157.00;;;16.69;54.21
79782;BME280;69262;48.470;7.960;2023-04-19T02:16:05;100177.31;;;16.86;54.03
79782;BME280;69262;48.470;7.960;2023-04-19T02:19:06;100170.44;;;16.77;54.19
79782;BME280;69262;48.470;7.960;2023-04-19T02:22:06;100163.69;;;16.73;54.18
79782;BME280;69262;48.470;7.960;2023-04-19T02:25:07;100163.72;;;16.79;54.00
79782;BME280;69262;48.470;7.960;2023-04-19T02:28:07;100164.13;;;16.76;54.03
79782;BME280;69262;48.470;7.960;2023-04-19T02:31:07;100160.59;;;16.76;54.18
79782;BME280;69262;48.470;7.960;2023-04-19T02:34:07;100146.09;;;16.62;54.17
79782;BME280;69262;48.470;7.960;2023-04-19T02:37:08;100157.19;;;16.74;54.29
79782;BME280;69262;48.470;7.960;2023-04-19T02:40:08;100168.31;;;16.79;53.93
79782;BME280;69262;48.470;7.960;2023-04-19T02:43:09;100160.13;;;16.72;54.26
79782;BME280;69262;48.470;7.960;2023-04-19T02:46:09;100147.16;;;16.68;54.06
79782;BME280;69262;48.470;7.960;2023-04-19T02:49:09;100164.53;;;16.73;54.13
79782;BME280;69262;48.470;7.960;2023-04-19T02:52:09;100154.06;;;16.70;54.13
79782;BME280;69262;48.470;7.960;2023-04-19T02:55:10;100166.22;;;16.74;54.09
79782;BME280;69262;48.470;7.960;2023-04-19T02:58:10;100169.16;;;16.73;54.23
79782;BME280;69262;48.470;7.960;2023-04-19T03:01:10;100150.50;;;16.63;54.33
79782;BME280;69262;48.470;7.960;2023-04-19T03:04:11;100162.88;;;16.72;54.41
79782;BME280;69262;48.470;7.960;2023-04-19T03:07:12;100162.69;;;16.67;54.38
79782;BME280;69262;48.470;7.960;2023-04-19T03:10:12;100160.13;;;16.72;54.59
79782;BME280;69262;48.470;7.960;2023-04-19T03:13:12;100161.81;;;16.73;53.96
79782;BME280;69262;48.470;7.960;2023-04-19T03:16:12;100160.13;;;16.72;53.79
79782;BME280;69262;48.470;7.960;2023-04-19T03:19:13;100160.53;;;16.89;53.56
79782;BME280;69262;48.470;7.960;2023-04-19T03:22:13;100154.22;;;16.89;53.43
79782;BME280;69262;48.470;7.960;2023-04-19T03:25:13;100144.16;;;16.89;53.39
79782;BME280;69262;48.470;7.960;2023-04-19T03:28:14;100146.66;;;16.91;53.35
79782;BME280;69262;48.470;7.960;2023-04-19T03:31:14;100151.69;;;16.94;53.55
79782;BME280;69262;48.470;7.960;2023-04-19T03:34:14;100155.66;;;17.04;53.36
79782;BME280;69262;48.470;7.960;2023-04-19T03:37:15;100146.84;;;17.02;53.52
79782;BME280;69262;48.470;7.960;2023-04-19T03:40:15;100143.47;;;17.07;53.08
79782;BME280;69262;48.470;7.960;2023-04-19T03:43:15;100151.38;;;17.15;52.95
79782;BME280;69262;48.470;7.960;2023-04-19T03:46:16;100142.16;;;17.16;53.07
79782;BME280;69262;48.470;7.960;2023-04-19T03:49:16;100125.34;;;17.19;53.00
79782;BME280;69262;48.470;7.960;2023-04-19T03:52:16;100142.72;;;17.31;53.11
79782;BME280;69262;48.470;7.960;2023-04-19T03:55:17;100113.81;;;17.17;52.77
79782;BME280;69262;48.470;7.960;2023-04-19T03:58:17;100127.16;;;17.32;52.65
79782;BME280;69262;48.470;7.960;2023-04-19T04:01:18;100148.50;;;17.41;52.63
79782;BME280;69262;48.470;7.960;2023-04-19T04:04:19;100129.69;;;17.33;52.46
79782;BME280;69262;48.470;7.960;2023-04-19T04:07:19;100144.56;;;17.37;52.60
79782;BME280;69262;48.470;7.960;2023-04-19T04:10:20;100147.06;;;17.39;52.65
79782;BME280;69262;48.470;7.960;2023-04-19T04:13:21;100137.66;;;17.35;52.59
79782;BME280;69262;48.470;7.960;2023-04-19T04:16:21;100145.38;;;17.44;52.49
79782;BME280;69262;48.470;7.960;2023-04-19T04:19:21;100144.72;;;17.42;52.52
79782;BME280;69262;48.470;7.960;2023-04-19T04:22:22;100148.31;;;17.43;52.55
79782;BME280;69262;48.470;7.960;2023-04-19T04:25:22;100139.72;;;17.39;52.50
79782;BME280;69262;48.470;7.960;2023-04-19T04:28:23;100152.91;;;17.49;52.41
79782;BME280;69262;48.470;7.960;2023-04-19T04:31:23;100154.75;;;17.55;52.16
79782;BME280;69262;48.470;7.960;2023-04-19T04:34:24;100150.72;;;17.58;52.22
79782;BME280;69262;48.470;7.960;2023-04-19T04:37:25;100164.56;;;17.69;52.05
79782;BME280;69262;48.470;7.960;2023-04-19T04:40:25;100154.25;;;17.65;51.99
79782;BME280;69262;48.470;7.960;2023-04-19T04:43:25;100140.03;;;17.56;52.09
79782;BME280;69262;48.470;7.960;2023-04-19T04:46:28;100158.50;;;17.67;52.11
79782;BME280;69262;48.470;7.960;2023-04-19T04:49:28;100162.66;;;17.70;52.04
79782;BME280;69262;48.470;7.960;2023-04-19T04:52:29;100134.34;;;17.58;51.98
79782;BME280;69262;48.470;7.960;2023-04-19T04:55:29;100159.72;;;17.65;51.97
79782;BME280;69262;48.470;7.960;2023-04-19T04:58:30;100170.19;;;17.74;51.67
79782;BME280;69262;48.470;7.960;2023-04-19T05:01:30;100164.97;;;17.73;51.88
79782;BME280;69262;48.470;7.960;2023-04-19T05:04:30;100167.53;;;17.68;52.06
79782;BME280;69262;48.470;7.960;2023-04-19T05:07:30;100177.31;;;17.75;52.00
79782;BME280;69262;48.470;7.960;2023-04-19T05:10:31;100176.94;;;17.72;51.87
79782;BME280;69262;48.470;7.960;2023-04-19T05:13:31;100179.22;;;17.75;51.90
79782;BME280;69262;48.470;7.960;2023-04-19T05:16:32;100165.91;;;17.85;51.83
79782;BME280;69262;48.470;7.960;2023-04-19T05:19:32;100178.34;;;17.81;51.89
79782;BME280;69262;48.470;7.960;2023-04-19T05:22:32;100175.59;;;17.81;51.63
79782;BME280;69262;48.470;7.960;2023-04-19T05:25:32;100165.34;;;17.77;51.92
79782;BME280;69262;48.470;7.960;2023-04-19T05:28:33;100153.63;;;17.69;51.86
79782;BME280;69262;48.470;7.960;2023-04-19T05:31:33;100167.16;;;17.89;51.55
79782;BME280;69262;48.470;7.960;2023-04-19T05:34:35;100178.81;;;18.03;51.26
79782;BME280;69262;48.470;7.960;2023-04-19T05:37:35;100173.91;;;18.12;51.13
79782;BME280;69262;48.470;7.960;2023-04-19T05:40:36;100176.59;;;18.18;50.94
79782;BME280;69262;48.470;7.960;2023-04-19T05:43:36;100183.44;;;18.27;50.80
79782;BME280;69262;48.470;7.960;2023-04-19T05:46:36;100173.56;;;18.26;50.65
79782;BME280;69262;48.470;7.960;2023-04-19T05:49:36;100164.06;;;18.29;50.50
79782;BME280;69262;48.470;7.960;2023-04-19T05:52:37;100165.72;;;18.36;50.47
79782;BME280;69262;48.470;7.960;2023-04-19T05:55:37;100171.25;;;18.48;50.08
79782;BME280;69262;48.470;7.960;2023-04-19T05:58:37;100172.53;;;18.46;50.19
79782;BME280;69262;48.470;7.960;2023-04-19T06:01:38;100169.88;;;18.39;50.24
79782;BME280;69262;48.470;7.960;2023-04-19T06:04:38;100184.00;;;18.54;50.20
79782;BME280;69262;48.470;7.960;2023-04-19T06:07:38;100170.94;;;18.63;49.99
79782;BME280;69262;48.470;7.960;2023-04-19T06:10:38;100179.53;;;18.85;50.10
79782;BME280;69262;48.470;7.960;2023-04-19T06:13:39;100180.16;;;19.05;49.94
79782;BME280;69262;48.470;7.960;2023-04-19T06:16:40;100181.22;;;19.04;50.05
79782;BME280;69262;48.470;7.960;2023-04-19T06:19:40;100179.47;;;19.10;50.41
79782;BME280;69262;48.470;7.960;2023-04-19T06:22:44;100191.06;;;19.23;50.81
79782;BME280;69262;48.470;7.960;2023-04-19T06:25:45;100168.56;;;19.21;50.65
79782;BME280;69262;48.470;7.960;2023-04-19T06:28:47;100161.19;;;19.22;50.52
79782;BME280;69262;48.470;7.960;2023-04-19T06:31:47;100159.94;;;19.36;50.70
79782;BME280;69262;48.470;7.960;2023-04-19T06:34:48;100171.34;;;19.51;50.72
79782;BME280;69262;48.470;7.960;2023-04-19T06:37:48;100167.44;;;19.59;50.57
79782;BME280;69262;48.470;7.960;2023-04-19T06:40:48;100163.13;;;19.51;50.40
79782;BME280;69262;48.470;7.960;2023-04-19T06:43:49;100170.47;;;19.69;49.97
79782;BME280;69262;48.470;7.960;2023-04-19T06:46:49;100182.44;;;19.56;50.40
79782;BME280;69262;48.470;7.960;2023-04-19T06:49:50;100175.66;;;19.59;50.23
79782;BME280;69262;48.470;7.960;2023-04-19T06:52:50;100171.81;;;19.48;50.21
79782;BME280;69262;48.470;7.960;2023-04-19T06:55:57;100172.22;;;19.64;49.98
79782;BME280;69262;48.470;7.960;2023-04-19T06:58:59;100167.22;;;19.61;50.26
79782;BME280;69262;48.470;7.960;2023-04-19T07:01:59;100171.25;;;19.58;50.20
79782;BME280;69262;48.470;7.960;2023-04-19T07:04:59;100177.00;;;19.68;49.88
79782;BME280;69262;48.470;7.960;2023-04-19T07:08:00;100176.63;;;19.65;50.10
79782;BME280;69262;48.470;7.960;2023-04-19T07:11:00;100169.63;;;19.69;50.25
79782;BME280;69262;48.470;7.960;2023-04-19T07:14:01;100176.16;;;19.68;49.89
79782;BME280;69262;48.470;7.960;2023-04-19T07:17:03;100162.34;;;19.63;50.02
79782;BME280;69262;48.470;7.960;2023-04-19T07:20:04;100174.41;;;19.73;50.01
79782;BME280;69262;48.470;7.960;2023-04-19T07:23:05;100166.63;;;19.58;50.15
79782;BME280;69262;48.470;7.960;2023-04-19T07:26:06;100169.22;;;19.53;50.49
79782;BME280;69262;48.470;7.960;2023-04-19T07:29:06;100167.94;;;19.56;50.46
79782;BME280;69262;48.470;7.960;2023-04-19T07:32:07;100165.59;;;19.71;50.21
79782;BME280;69262;48.470;7.960;2023-04-19T07:35:07;100159.47;;;19.57;50.36
79782;BME280;69262;48.470;7.960;2023-04-19T07:38:07;100165.84;;;19.70;50.37
79782;BME280;69262;48.470;7.960;2023-04-19T07:41:08;100175.16;;;19.80;50.45
79782;BME280;69262;48.470;7.960;2023-04-19T07:44:08;100167.03;;;19.74;50.19
79782;BME280;69262;48.470;7.960;2023-04-19T07:47:10;100168.84;;;19.80;50.27
79782;BME280;69262;48.470;7.960;2023-04-19T07:50:10;100161.19;;;19.70;50.27
79782;BME280;69262;48.470;7.960;2023-04-19T07:53:11;100170.00;;;19.72;50.55
79782;BME280;69262;48.470;7.960;2023-04-19T07:56:12;100168.34;;;19.71;50.63
79782;BME280;69262;48.470;7.960;2023-04-19T07:59:13;100159.38;;;19.64;50.58
79782;BME280;69262;48.470;7.960;2023-04-19T08:02:13;100140.66;;;19.61;50.31
79782;BME280;69262;48.470;7.960;2023-04-19T08:05:16;100169.56;;;19.87;50.11
79782;BME280;69262;48.470;7.960;2023-04-19T08:08:16;100162.81;;;20.01;49.60
79782;BME280;69262;48.470;7.960;2023-04-19T08:11:16;100156.75;;;20.34;49.10
79782;BME280;69262;48.470;7.960;2023-04-19T08:14:17;100163.09;;;20.58;49.21
79782;BME280;69262;48.470;7.960;2023-04-19T08:17:17;100135.06;;;20.56;48.94
79782;BME280;69262;48.470;7.960;2023-04-19T08:20:21;100157.50;;;20.65;49.15
79782;BME280;69262;48.470;7.960;2023-04-19T08:23:22;100143.69;;;20.60;48.91
79782;BME280;69262;48.470;7.960;2023-04-19T08:26:23;100163.59;;;20.67;48.83
79782;BME280;69262;48.470;7.960;2023-04-19T08:29:24;100112.81;;;20.41;49.04
79782;BME280;69262;48.470;7.960;2023-04-19T08:32:25;100149.75;;;20.62;49.40
79782;BME280;69262;48.470;7.960;2023-04-19T08:35:25;100148.78;;;20.56;49.27
79782;BME280;69262;48.470;7.960;2023-04-19T08:38:26;100155.47;;;20.48;49.56
79782;BME280;69262;48.470;7.960;2023-04-19T08:41:29;100156.78;;;20.46;49.53
79782;BME280;69262;48.470;7.960;2023-04-19T08:44:31;100159.78;;;20.44;49.79
79782;BME280;69262;48.470;7.960;2023-04-19T08:47:33;100147.25;;;20.37;49.81
79782;BME280;69262;48.470;7.960;2023-04-19T08:50:34;100164.66;;;20.42;49.75
79782;BME280;69262;48.470;7.960;2023-04-19T08:53:36;100152.34;;;20.33;49.97
79782;BME280;69262;48.470;7.960;2023-04-19T08:56:37;100147.47;;;20.24;50.44
79782;BME280;69262;48.470;7.960;2023-04-19T08:59:38;100142.31;;;20.27;50.59
79782;BME280;69262;48.470;7.960;2023-04-19T09:02:50;100155.66;;;20.35;50.25
79782;BME280;69262;48.470;7.960;2023-04-19T09:05:51;100157.81;;;20.33;50.57
79782;BME280;69262;48.470;7.960;2023-04-19T09:08:52;100153.75;;;20.36;50.57
79782;BME280;69262;48.470;7.960;2023-04-19T09:11:57;100153.56;;;20.37;50.70
79782;BME280;69262;48.470;7.960;2023-04-19T09:14:58;100138.75;;;20.27;50.55
79782;BME280;69262;48.470;7.960;2023-04-19T09:18:05;100140.88;;;20.36;50.78
79782;BME280;69262;48.470;7.960;2023-04-19T09:21:07;100139.47;;;20.34;51.04
79782;BME280;69262;48.470;7.960;2023-04-19T09:24:09;100135.41;;;20.36;51.20
79782;BME280;69262;48.470;7.960;2023-04-19T09:27:11;100125.31;;;20.37;51.03
79782;BME280;69262;48.470;7.960;2023-04-19T09:30:14;100135.59;;;20.41;50.66
79782;BME280;69262;48.470;7.960;2023-04-19T09:33:30;100133.66;;;20.54;50.79
79782;BME280;69262;48.470;7.960;2023-04-19T09:36:32;100125.78;;;20.57;50.56
79782;BME280;69262;48.470;7.960;2023-04-19T09:39:33;100131.63;;;20.61;50.73
79782;BME280;69262;48.470;7.960;2023-04-19T09:42:45;100126.75;;;20.63;50.56
79782;BME280;69262;48.470;7.960;2023-04-19T09:45:45;100111.69;;;20.54;50.69
79782;BME280;69262;48.470;7.960;2023-04-19T09:48:46;100112.09;;;20.45;51.26
79782;BME280;69262;48.470;7.960;2023-04-19T09:51:51;100103.13;;;20.38;51.08
79782;BME280;69262;48.470;7.960;2023-04-19T09:54:53;100095.81;;;20.32;51.57
79782;BME280;69262;48.470;7.960;2023-04-19T09:57:56;100085.59;;;20.28;51.85
79782;BME280;69262;48.470;7.960;2023-04-19T10:00:58;100092.41;;;20.37;52.37
79782;BME280;69262;48.470;7.960;2023-04-19T10:03:59;100098.47;;;20.39;52.70
79782;BME280;69262;48.470;7.960;2023-04-19T10:06:59;100089.78;;;20.42;52.80
79782;BME280;69262;48.470;7.960;2023-04-19T10:10:02;100087.28;;;20.40;54.22
79782;BME280;69262;48.470;7.960;2023-04-19T10:13:05;100103.56;;;20.35;54.81
79782;BME280;69262;48.470;7.960;2023-04-19T10:16:06;100072.94;;;20.27;54.20
79782;BME280;69262;48.470;7.960;2023-04-19T10:19:08;100093.34;;;20.54;54.61
79782;BME280;69262;48.470;7.960;2023-04-19T10:22:10;100084.16;;;20.60;54.57
79782;BME280;69262;48.470;7.960;2023-04-19T10:25:13;100083.09;;;20.38;52.88
79782;BME280;69262;48.470;7.960;2023-04-19T10:28:15;100083.78;;;20.57;54.64
79782;BME280;69262;48.470;7.960;2023-04-19T10:31:19;100085.09;;;20.66;54.93
79782;BME280;69262;48.470;7.960;2023-04-19T10:34:41;100066.41;;;20.51;55.31
79782;BME280;69262;48.470;7.960;2023-04-19T10:38:01;100079.50;;;20.61;55.21
79782;BME280;69262;48.470;7.960;2023-04-19T10:41:01;100070.91;;;20.57;55.09
79782;BME280;69262;48.470;7.960;2023-04-19T10:44:08;100066.78;;;20.43;55.52
79782;BME280;69262;48.470;7.960;2023-04-19T10:47:09;100057.22;;;20.45;55.35
79782;BME280;69262;48.470;7.960;2023-04-19T10:50:09;100045.28;;;20.52;55.54
79782;BME280;69262;48.470;7.960;2023-04-19T10:53:49;100053.38;;;20.58;55.45
79782;BME280;69262;48.470;7.960;2023-04-19T10:57:04;100059.34;;;20.55;56.30
79782;BME280;69262;48.470;7.960;2023-04-19T11:00:20;100063.66;;;20.51;56.55
79782;BME280;69262;48.470;7.960;2023-04-19T11:03:49;100053.41;;;20.46;56.33
79782;BME280;69262;48.470;7.960;2023-04-19T11:09:51;100017.19;;;20.21;56.30
79782;BME280;69262;48.470;7.960;2023-04-19T11:12:51;100041.34;;;20.36;56.09
79782;BME280;69262;48.470;7.960;2023-04-19T11:15:52;100040.75;;;20.34;56.68
79782;BME280;69262;48.470;7.960;2023-04-19T11:18:52;100037.41;;;20.32;56.19
79782;BME280;69262;48.470;7.960;2023-04-19T11:21:56;100030.50;;;20.29;56.17
79782;BME280;69262;48.470;7.960;2023-04-19T11:28:17;100023.50;;;20.22;56.42
79782;BME280;69262;48.470;7.960;2023-04-19T11:31:18;100008.59;;;20.17;56.02
79782;BME280;69262;48.470;7.960;2023-04-19T11:34:21;99999.56;;;20.05;55.95
79782;BME280;69262;48.470;7.960;2023-04-19T11:37:22;100004.09;;;19.88;55.82
79782;BME280;69262;48.470;7.960;2023-04-19T11:40:23;100004.09;;;19.88;55.79
79782;BME280;69262;48.470;7.960;2023-04-19T11:43:34;100009.06;;;19.91;54.78
79782;BME280;69262;48.470;7.960;2023-04-19T11:46:35;99990.16;;;19.78;53.04
79782;BME280;69262;48.470;7.960;2023-04-19T11:52:25;99982.06;;;19.83;52.64
79782;BME280;69262;48.470;7.960;2023-04-19T11:55:26;99985.50;;;19.78;52.17
79782;BME280;69262;48.470;7.960;2023-04-19T12:01:28;99973.94;;;19.65;52.01
79782;BME280;69262;48.470;7.960;2023-04-19T12:04:29;99986.47;;;19.72;51.51
79782;BME280;69262;48.470;7.960;2023-04-19T12:07:29;99982.06;;;19.71;50.96
79782;BME280;69262;48.470;7.960;2023-04-19T12:10:31;99976.84;;;19.70;50.46
79782;BME280;69262;48.470;7.960;2023-04-19T12:13:31;99979.78;;;19.68;50.22
79782;BME280;69262;48.470;7.960;2023-04-19T12:16:32;99970.03;;;19.61;50.01
79782;BME280;69262;48.470;7.960;2023-04-19T12:19:43;99977.53;;;19.65;49.56
79782;BME280;69262;48.470;7.960;2023-04-19T12:22:44;99971.69;;;19.62;50.13
79782;BME280;69262;48.470;7.960;2023-04-19T12:25:45;99970.50;;;19.57;49.12
79782;BME280;69262;48.470;7.960;2023-04-19T12:28:46;99969.66;;;19.57;48.97
79782;BME280;69262;48.470;7.960;2023-04-19T12:31:47;99957.28;;;19.54;48.20
79782;BME280;69262;48.470;7.960;2023-04-19T12:34:47;99963.13;;;19.58;48.10
79782;BME280;69262;48.470;7.960;2023-04-19T12:37:47;99966.44;;;19.60;48.07
79782;BME280;69262;48.470;7.960;2023-04-19T12:40:48;99959.31;;;19.59;47.89
79782;BME280;69262;48.470;7.960;2023-04-19T12:43:48;99960.97;;;19.60;48.02
79782;BME280;69262;48.470;7.960;2023-04-19T12:46:49;99958.47;;;19.58;47.88
79782;BME280;69262;48.470;7.960;2023-04-19T12:49:49;99956.06;;;19.50;47.94
79782;BME280;69262;48.470;7.960;2023-04-19T12:52:50;99956.53;;;19.47;48.17
79782;BME280;69262;48.470;7.960;2023-04-19T12:55:52;99951.47;;;19.09;47.71
79782;BME280;69262;48.470;7.960;2023-04-19T12:58:53;99948.44;;;19.29;47.69
79782;BME280;69262;48.470;7.960;2023-04-19T13:01:53;99951.41;;;19.51;48.14
79782;BME280;69262;48.470;7.960;2023-04-19T13:04:54;99939.31;;;19.58;47.75
79782;BME280;69262;48.470;7.960;2023-04-19T13:07:54;99939.06;;;19.60;48.42
79782;BME280;69262;48.470;7.960;2023-04-19T13:10:55;99924.53;;;19.60;48.36
79782;BME280;69262;48.470;7.960;2023-04-19T13:13:55;99927.63;;;19.63;48.13
79782;BME280;69262;48.470;7.960;2023-04-19T13:16:56;99930.25;;;19.58;48.60
79782;BME280;69262;48.470;7.960;2023-04-19T13:19:56;99924.53;;;19.60;49.22
79782;BME280;69262;48.470;7.960;2023-04-19T13:22:56;99909.91;;;19.54;48.83
79782;BME280;69262;48.470;7.960;2023-04-19T13:25:57;99909.28;;;19.52;49.56
79782;BME280;69262;48.470;7.960;2023-04-19T13:28:57;99896.22;;;19.54;49.11
79782;BME280;69262;48.470;7.960;2023-04-19T13:31:58;99906.78;;;19.62;49.22
79782;BME280;69262;48.470;7.960;2023-04-19T13:34:58;99892.97;;;19.57;49.70
79782;BME280;69262;48.470;7.960;2023-04-19T13:37:59;99905.38;;;19.60;49.67
79782;BME280;69262;48.470;7.960;2023-04-19T13:40:59;99899.53;;;19.56;50.08
79782;BME280;69262;48.470;7.960;2023-04-19T13:44:00;99886.91;;;19.55;50.25
79782;BME280;69262;48.470;7.960;2023-04-19T13:47:00;99890.25;;;19.57;50.27
79782;BME280;69262;48.470;7.960;2023-04-19T13:50:00;99889.66;;;19.55;50.76
79782;BME280;69262;48.470;7.960;2023-04-19T13:53:01;99883.09;;;19.56;50.61
79782;BME280;69262;48.470;7.960;2023-04-19T13:56:02;99882.63;;;19.47;50.88
79782;BME280;69262;48.470;7.960;2023-04-19T13:59:02;99874.16;;;19.49;51.04
79782;BME280;69262;48.470;7.960;2023-04-19T14:02:03;99883.44;;;19.48;51.32
79782;BME280;69262;48.470;7.960;2023-04-19T14:05:04;99877.25;;;19.41;51.73
79782;BME280;69262;48.470;7.960;2023-04-19T14:08:04;99872.84;;;19.40;51.56
79782;BME280;69262;48.470;7.960;2023-04-19T14:11:05;99883.44;;;19.36;51.25
79782;BME280;69262;48.470;7.960;2023-04-19T14:14:05;99874.38;;;19.36;51.47
79782;BME280;69262;48.470;7.960;2023-04-19T14:17:05;99871.31;;;19.32;51.82
79782;BME280;69262;48.470;7.960;2023-04-19T14:20:06;99867.72;;;19.32;52.39
79782;BME280;69262;48.470;7.960;2023-04-19T14:23:07;99870.22;;;19.33;52.55
79782;BME280;69262;48.470;7.960;2023-04-19T14:26:07;99872.38;;;19.31;52.65
79782;BME280;69262;48.470;7.960;2023-04-19T14:29:08;99875.25;;;19.24;51.64
79782;BME280;69262;48.470;7.960;2023-04-19T14:32:08;99877.69;;;18.79;52.22
79782;BME280;69262;48.470;7.960;2023-04-19T14:35:09;99871.53;;;19.19;51.69
79782;BME280;69262;48.470;7.960;2023-04-19T14:43:00;99880.13;;;12.31;68.33
79782;BME280;69262;48.470;7.960;2023-04-19T14:46:00;99874.13;;;12.35;68.56
79782;BME280;69262;48.470;7.960;2023-04-19T14:49:01;99877.81;;;12.49;68.29
79782;BME280;69262;48.470;7.960;2023-04-19T14:52:05;99875.84;;;12.43;68.60
79782;BME280;69262;48.470;7.960;2023-04-19T14:55:05;99868.47;;;12.51;68.81
79782;BME280;69262;48.470;7.960;2023-04-19T14:58:06;99869.34;;;12.37;69.43
79782;BME280;69262;48.470;7.960;2023-04-19T15:01:11;99866.91;;;12.64;68.79
79782;BME280;69262;48.470;7.960;2023-04-19T15:04:11;99855.31;;;12.48;68.81
79782;BME280;69262;48.470;7.960;2023-04-19T15:07:12;99857.63;;;12.73;68.37
79782;BME280;69262;48.470;7.960;2023-04-19T15:10:12;99809.53;;;12.53;68.21
79782;BME280;69262;48.470;7.960;2023-04-19T15:13:12;99860.75;;;12.98;67.62
79782;BME280;69262;48.470;7.960;2023-04-19T15:16:13;99855.66;;;12.67;68.24
79782;BME280;69262;48.470;7.960;2023-04-19T15:19:13;99858.25;;;12.75;68.77
79782;BME280;69262;48.470;7.960;2023-04-19T15:22:14;99854.47;;;12.69;69.14
79782;BME280;69262;48.470;7.960;2023-04-19T15:25:14;99855.09;;;12.71;69.10
79782;BME280;69262;48.470;7.960;2023-04-19T15:28:15;99845.31;;;12.70;69.44
79782;BME280;69262;48.470;7.960;2023-04-19T15:31:15;99834.44;;;12.92;68.34
79782;BME280;69262;48.470;7.960;2023-04-19T15:34:16;99840.06;;;12.90;68.22
79782;BME280;69262;48.470;7.960;2023-04-19T15:37:17;99842.06;;;12.60;68.73
79782;BME280;69262;48.470;7.960;2023-04-19T15:40:17;99855.50;;;12.68;68.95
79782;BME280;69262;48.470;7.960;2023-04-19T15:43:17;99843.13;;;12.38;69.87
79782;BME280;69262;48.470;7.960;2023-04-19T15:46:18;99851.63;;;12.56;69.74
79782;BME280;69262;48.470;7.960;2023-04-19T15:49:18;99858.91;;;12.55;69.97
79782;BME280;69262;48.470;7.960;2023-04-19T15:52:19;99855.97;;;12.29;70.45
79782;BME280;69262;48.470;7.960;2023-04-19T15:55:19;99861.03;;;12.17;71.41
79782;BME280;69262;48.470;7.960;2023-04-19T15:58:19;99853.53;;;12.19;71.22
79782;BME280;69262;48.470;7.960;2023-04-19T16:01:20;99852.88;;;11.96;71.72
79782;BME280;69262;48.470;7.960;2023-04-19T16:04:21;99856.59;;;11.95;72.45
79782;BME280;69262;48.470;7.960;2023-04-19T16:07:22;99862.66;;;11.97;72.73